Time;durP1;ratioP1;P1;durP2;ratioP2;P2;SDS_P1;SDS_P2;PMS_P1;PMS_P2;Temp;Humidity;BMP_temperature;BMP_pressure;BME280_temperature;BME280_humidity;BME280_pressure;Samples;Min_cycle;Max_cycle;Signal;HPM_P1;HPM_P2
2020/12/03 00:01:53;;;;;;;132.67;64.67;;;-1.50;87.10;;;;;;4997281;28;88092;-74
2020/12/03 00:04:19;;;;;;;137.87;66.30;;;-1.50;86.90;;;;;;4981486;28;88958;-74
2020/12/03 00:06:51;;;;;;;132.07;63.50;;;-1.50;87.30;;;;;;4999342;28;88153;-74
2020/12/03 00:09:19;;;;;;;121.30;61.30;;;-1.50;87.30;;;;;;4985957;28;88280;-74
2020/12/03 00:11:48;;;;;;;126.30;63.97;;;-1.40;86.50;;;;;;4993279;28;88054;-74
2020/12/03 00:14:14;;;;;;;135.00;67.87;;;-1.40;86.60;;;;;;4983309;28;92909;-74
2020/12/03 00:16:41;;;;;;;133.93;66.00;;;-1.40;86.80;;;;;;4989959;28;87389;-74
2020/12/03 00:19:09;;;;;;;134.23;66.00;;;-1.40;86.50;;;;;;4996988;28;89270;-75
2020/12/03 00:21:42;;;;;;;143.60;69.07;;;-1.40;86.60;;;;;;4998038;28;91548;-74
2020/12/03 00:24:11;;;;;;;134.80;70.73;;;-1.40;86.50;;;;;;4997998;28;88216;-74
2020/12/03 00:26:37;;;;;;;138.50;68.93;;;-1.30;86.30;;;;;;4999323;28;87269;-74
2020/12/03 00:29:04;;;;;;;130.53;66.63;;;-1.30;85.80;;;;;;4996767;28;88271;-75
2020/12/03 00:31:30;;;;;;;133.63;64.87;;;-1.20;85.30;;;;;;4999034;28;89322;-74
2020/12/03 00:33:56;;;;;;;133.47;66.60;;;-1.20;85.20;;;;;;4998121;28;88783;-74
2020/12/03 00:36:22;;;;;;;144.60;67.93;;;-1.10;84.80;;;;;;4998204;28;87070;-74
2020/12/03 00:38:49;;;;;;;129.30;63.43;;;-1.20;85.20;;;;;;4997106;28;87885;-74
2020/12/03 00:41:16;;;;;;;129.37;66.60;;;-1.20;85.40;;;;;;4984446;28;87192;-74
2020/12/03 00:43:42;;;;;;;128.53;63.83;;;-1.20;85.60;;;;;;5002765;28;87583;-74
2020/12/03 00:46:08;;;;;;;129.20;62.33;;;-1.10;85.20;;;;;;4999141;28;86984;-74
2020/12/03 00:48:34;;;;;;;141.63;66.00;;;-1.10;84.50;;;;;;4997976;28;86647;-74
2020/12/03 00:51:01;;;;;;;134.47;66.43;;;-1.00;84.00;;;;;;4997567;28;90341;-75
2020/12/03 00:53:28;;;;;;;137.43;65.80;;;-0.90;83.70;;;;;;4997298;28;92088;-74
2020/12/03 00:55:54;;;;;;;124.70;64.43;;;-0.90;82.70;;;;;;4996673;28;88021;-74
2020/12/03 00:58:21;;;;;;;130.50;64.10;;;-0.90;83.00;;;;;;4980055;28;88098;-74
2020/12/03 01:00:47;;;;;;;130.77;66.40;;;-1.00;82.50;;;;;;4994242;28;87724;-74
2020/12/03 01:03:13;;;;;;;137.17;67.73;;;-0.90;82.70;;;;;;4982042;28;91686;-74
2020/12/03 01:05:39;;;;;;;129.60;66.10;;;-1.00;83.10;;;;;;4986637;28;87420;-74
2020/12/03 01:08:05;;;;;;;134.97;65.03;;;-1.20;83.10;;;;;;4977587;28;89036;-74
2020/12/03 01:10:34;;;;;;;129.97;61.47;;;-1.20;83.30;;;;;;4993717;28;88748;-74
2020/12/03 01:13:00;;;;;;;138.63;64.83;;;-1.40;83.90;;;;;;4995886;28;91277;-75
2020/12/03 01:15:27;;;;;;;142.07;68.10;;;-1.40;84.60;;;;;;4981629;28;87126;-74
2020/12/03 01:17:54;;;;;;;146.23;70.13;;;-1.40;85.00;;;;;;4986388;28;88285;-74
2020/12/03 01:20:25;;;;;;;135.43;63.53;;;-1.30;84.80;;;;;;4996006;28;89254;-74
2020/12/03 01:22:52;;;;;;;139.23;67.18;;;-1.40;85.10;;;;;;4997038;28;92091;-74
2020/12/03 01:25:21;;;;;;;146.27;67.83;;;-1.40;85.80;;;;;;4996979;28;87433;-75
2020/12/03 01:27:47;;;;;;;149.17;69.63;;;-1.40;86.00;;;;;;4992250;28;87838;-74
2020/12/03 01:30:15;;;;;;;126.27;64.73;;;-1.40;86.00;;;;;;4986830;28;91794;-74
2020/12/03 01:32:41;;;;;;;139.40;68.73;;;-1.40;85.80;;;;;;4978150;28;91026;-74
2020/12/03 01:35:10;;;;;;;138.90;67.43;;;-1.40;85.50;;;;;;4978645;28;86950;-75
2020/12/03 01:37:36;;;;;;;133.27;66.07;;;-1.30;85.60;;;;;;4967208;28;87644;-74
2020/12/03 01:40:10;;;;;;;146.13;69.60;;;-1.30;85.20;;;;;;4985772;28;88532;-74
2020/12/03 01:42:40;;;;;;;140.73;66.53;;;-1.40;85.80;;;;;;4988989;28;87097;-74
2020/12/03 01:45:43;;;;;;;138.70;70.23;;;-1.30;85.30;;;;;;4978371;28;89635;-75
2020/12/03 01:48:54;;;;;;;138.30;69.27;;;-1.30;84.70;;;;;;4996438;28;87031;-74
2020/12/03 01:51:25;;;;;;;135.43;66.10;;;-1.30;85.30;;;;;;4985547;28;91465;-74
2020/12/03 01:53:59;;;;;;;149.93;70.17;;;-1.40;85.80;;;;;;5014371;28;89239;-74
2020/12/03 01:56:31;;;;;;;139.20;65.17;;;-1.30;85.60;;;;;;4997511;28;87182;-74
2020/12/03 01:59:01;;;;;;;146.18;70.28;;;-1.30;85.60;;;;;;4997731;28;87796;-74
2020/12/03 02:01:27;;;;;;;146.53;73.20;;;-1.30;85.80;;;;;;4998621;28;87276;-74
2020/12/03 02:03:53;;;;;;;140.17;69.87;;;-1.30;85.80;;;;;;4997888;28;87875;-74
2020/12/03 02:06:25;;;;;;;146.13;74.37;;;-1.30;85.60;;;;;;4996639;28;87388;-74
2020/12/03 02:08:51;;;;;;;145.13;71.60;;;-1.30;85.40;;;;;;4988931;28;87462;-74
2020/12/03 02:11:19;;;;;;;148.20;67.40;;;-1.30;85.40;;;;;;4976457;28;91930;-74
2020/12/03 02:13:53;;;;;;;139.50;68.43;;;-1.40;85.50;;;;;;4977789;28;92454;-74
2020/12/03 02:16:20;;;;;;;143.10;67.07;;;-1.40;86.10;;;;;;4991332;28;87553;-74
2020/12/03 02:18:47;;;;;;;143.53;68.33;;;-1.30;86.10;;;;;;4994721;28;87370;-74
2020/12/03 02:21:14;;;;;;;137.27;67.97;;;-1.20;85.10;;;;;;4980487;28;88032;-74
2020/12/03 02:23:40;;;;;;;149.57;68.47;;;-1.30;84.60;;;;;;4997335;28;91004;-74
2020/12/03 02:26:06;;;;;;;140.83;66.63;;;-1.30;84.60;;;;;;4979371;28;87331;-75
2020/12/03 02:28:32;;;;;;;142.33;68.87;;;-1.40;84.60;;;;;;4979297;28;88046;-74
2020/12/03 02:30:58;;;;;;;150.87;70.90;;;-1.30;84.20;;;;;;4979963;28;91598;-74
2020/12/03 02:33:24;;;;;;;154.53;70.07;;;-1.40;84.40;;;;;;4997011;28;87989;-74
2020/12/03 02:35:50;;;;;;;148.70;66.57;;;-1.40;84.70;;;;;;4997261;28;88478;-74
2020/12/03 02:38:16;;;;;;;155.07;68.53;;;-1.40;85.10;;;;;;4987052;28;87080;-74
2020/12/03 02:40:42;;;;;;;148.07;68.30;;;-1.40;84.70;;;;;;4977360;28;91973;-74
2020/12/03 02:43:08;;;;;;;151.73;70.33;;;-1.40;85.00;;;;;;4976630;28;90186;-74
2020/12/03 02:45:34;;;;;;;160.40;73.97;;;-1.40;85.10;;;;;;4986591;28;87354;-74
2020/12/03 02:48:00;;;;;;;165.23;72.57;;;-1.40;85.40;;;;;;4996349;28;86971;-75
2020/12/03 02:50:26;;;;;;;145.37;66.00;;;-1.30;84.80;;;;;;4989819;28;88966;-74
2020/12/03 02:52:52;;;;;;;157.97;70.63;;;-1.30;84.70;;;;;;4996612;28;89947;-74
2020/12/03 02:55:19;;;;;;;150.80;70.33;;;-1.20;84.00;;;;;;4995467;28;87314;-74
2020/12/03 02:57:44;;;;;;;153.70;70.57;;;-1.30;84.20;;;;;;4995997;28;87803;-74
2020/12/03 03:00:10;;;;;;;154.37;71.30;;;-1.40;84.80;;;;;;4992926;28;91886;-74
2020/12/03 03:02:36;;;;;;;153.40;73.07;;;-1.40;85.10;;;;;;4983872;28;92035;-74
2020/12/03 03:05:02;;;;;;;156.37;68.07;;;-1.40;85.40;;;;;;4996832;28;87063;-75
2020/12/03 03:07:28;;;;;;;149.93;68.73;;;-1.40;85.30;;;;;;4980048;28;87661;-74
2020/12/03 03:09:54;;;;;;;150.03;71.30;;;-1.30;84.70;;;;;;4992503;28;91490;-74
2020/12/03 03:12:20;;;;;;;155.87;67.37;;;-1.30;84.50;;;;;;4998371;28;91609;-74
2020/12/03 03:14:46;;;;;;;156.60;71.07;;;-1.30;84.50;;;;;;4999152;28;87942;-74
2020/12/03 03:17:13;;;;;;;152.87;71.40;;;-1.40;84.80;;;;;;4999352;28;86279;-74
2020/12/03 03:19:39;;;;;;;149.27;68.17;;;-1.40;84.90;;;;;;4986361;28;87875;-74
2020/12/03 03:22:04;;;;;;;167.13;69.13;;;-1.30;84.80;;;;;;4999470;28;90186;-75
2020/12/03 03:24:30;;;;;;;152.30;67.80;;;-1.20;84.30;;;;;;4999762;28;88385;-74
2020/12/03 03:26:56;;;;;;;160.07;73.10;;;-1.20;83.90;;;;;;5000189;28;88100;-74
2020/12/03 03:29:22;;;;;;;163.77;71.90;;;-1.30;83.90;;;;;;4998220;28;90945;-74
2020/12/03 03:31:48;;;;;;;159.60;71.33;;;-1.30;84.50;;;;;;4982994;28;91295;-74
2020/12/03 03:34:14;;;;;;;139.53;68.33;;;-1.30;84.80;;;;;;4998108;28;87080;-74
2020/12/03 03:36:40;;;;;;;143.33;69.30;;;-1.30;84.70;;;;;;4998704;28;88031;-74
2020/12/03 03:39:07;;;;;;;159.73;67.53;;;-1.30;84.70;;;;;;4982382;28;91571;-75
2020/12/03 03:41:34;;;;;;;152.87;71.60;;;-1.20;84.40;;;;;;4999235;28;91470;-74
2020/12/03 03:44:00;;;;;;;153.10;69.77;;;-1.20;83.90;;;;;;4999017;28;88317;-74
2020/12/03 03:46:26;;;;;;;176.80;76.60;;;-1.20;84.20;;;;;;4999251;28;87585;-75
2020/12/03 03:48:52;;;;;;;163.10;70.93;;;-1.30;84.70;;;;;;4998426;28;92154;-74
2020/12/03 03:51:18;;;;;;;160.17;72.17;;;-1.20;84.30;;;;;;4987921;28;92090;-74
2020/12/03 03:53:44;;;;;;;168.23;71.40;;;-1.30;84.20;;;;;;4979511;28;86980;-74
2020/12/03 03:56:11;;;;;;;150.07;70.07;;;-1.30;84.60;;;;;;4996471;28;87407;-75
2020/12/03 03:58:37;;;;;;;158.97;72.20;;;-1.30;84.90;;;;;;5018423;28;87746;-74
2020/12/03 04:01:03;;;;;;;168.53;72.80;;;-1.30;85.30;;;;;;4983857;28;90881;-76
2020/12/03 04:03:29;;;;;;;165.67;73.47;;;-1.20;85.30;;;;;;4995870;28;87454;-74
2020/12/03 04:05:55;;;;;;;182.83;76.83;;;-1.30;85.00;;;;;;4990409;28;86475;-74
2020/12/03 04:08:24;;;;;;;172.27;76.03;;;-1.20;84.80;;;;;;4998190;28;91048;-74
2020/12/03 04:10:50;;;;;;;170.03;77.47;;;-1.30;84.60;;;;;;4982109;28;91612;-74
2020/12/03 04:13:21;;;;;;;175.87;75.17;;;-1.20;84.70;;;;;;4981072;28;88274;-74
2020/12/03 04:15:47;;;;;;;165.67;77.07;;;-1.20;84.00;;;;;;4962915;28;86963;-74
2020/12/03 04:18:13;;;;;;;157.97;70.67;;;-1.20;84.50;;;;;;4974512;28;91558;-74
2020/12/03 04:20:39;;;;;;;158.77;71.03;;;-1.20;84.70;;;;;;4991962;28;88419;-74
2020/12/03 04:23:05;;;;;;;160.67;70.93;;;-1.20;84.70;;;;;;4980679;28;87173;-74
2020/12/03 04:25:31;;;;;;;167.23;74.00;;;-1.20;84.80;;;;;;4993005;28;87854;-74
2020/12/03 04:27:58;;;;;;;153.00;68.50;;;-1.30;84.90;;;;;;4997376;28;91212;-74
2020/12/03 04:30:23;;;;;;;155.83;68.33;;;-1.30;85.10;;;;;;4998803;28;91118;-74
2020/12/03 04:32:49;;;;;;;153.50;68.30;;;-1.30;85.20;;;;;;4982660;28;86960;-74
2020/12/03 04:35:18;;;;;;;159.60;70.37;;;-1.30;84.70;;;;;;4998418;28;88341;-74
2020/12/03 04:37:48;;;;;;;156.80;69.23;;;-1.30;84.70;;;;;;4998457;28;92196;-74
2020/12/03 04:40:31;;;;;;;167.67;70.90;;;-1.20;84.30;;;;;;4997689;28;87869;-74
2020/12/03 04:43:02;;;;;;;164.63;72.47;;;-1.10;83.90;;;;;;4999268;28;87333;-74
2020/12/03 04:45:49;;;;;;;162.95;72.43;;;-1.20;83.50;;;;;;4994390;28;87202;-73
2020/12/03 04:48:29;;;;;;;171.87;70.63;;;-1.10;83.30;;;;;;4981896;28;90328;-74
2020/12/03 04:51:01;;;;;;;152.97;71.10;;;-1.10;83.50;;;;;;4998725;28;91469;-74
2020/12/03 04:53:42;;;;;;;164.20;70.45;;;-1.10;83.10;;;;;;4996716;28;87027;-74
2020/12/03 04:56:19;;;;;;;147.80;67.55;;;-1.20;83.50;;;;;;4988919;28;86361;-74
2020/12/03 04:58:48;;;;;;;145.63;65.13;;;-1.20;84.00;;;;;;4980603;28;91753;-74
2020/12/03 05:01:52;;;;;;;153.00;68.60;;;-1.30;84.70;;;;;;4986107;28;88580;-74
2020/12/03 05:04:36;;;;;;;159.83;68.07;;;-1.20;83.90;;;;;;4988665;28;88241;-74
2020/12/03 05:07:08;;;;;;;149.60;68.53;;;-1.20;84.00;;;;;;4997781;28;87413;-75
2020/12/03 05:09:45;;;;;;;152.50;69.90;;;-1.00;83.60;;;;;;4996860;28;91664;-74
2020/12/03 05:12:20;;;;;;;159.23;69.40;;;-0.90;82.70;;;;;;4997702;28;91374;-74
2020/12/03 05:14:51;;;;;;;160.57;73.57;;;-0.80;82.40;;;;;;4999783;28;86979;-74
2020/12/03 05:17:25;;;;;;;155.53;69.30;;;-0.70;82.00;;;;;;4998414;28;87273;-74
2020/12/03 05:20:09;;;;;;;145.67;66.80;;;-0.70;81.70;;;;;;5002790;28;91544;-74
2020/12/03 05:22:34;;;;;;;155.57;68.33;;;-0.80;82.20;;;;;;4977633;28;91803;-74
2020/12/03 05:25:00;;;;;;;141.23;67.37;;;-0.60;81.70;;;;;;4988808;28;87877;-74
2020/12/03 05:27:28;;;;;;;151.93;69.20;;;-0.50;81.20;;;;;;4997921;28;87030;-74
2020/12/03 05:29:56;;;;;;;147.37;70.80;;;-0.50;80.60;;;;;;4996255;28;92804;-74
2020/12/03 05:32:22;;;;;;;147.50;68.20;;;-0.60;80.60;;;;;;4978822;28;92344;-74
2020/12/03 05:34:50;;;;;;;150.47;67.33;;;-0.60;80.70;;;;;;4989295;28;87164;-74
2020/12/03 05:37:17;;;;;;;149.97;68.53;;;-0.50;80.80;;;;;;4996894;28;88089;-75
2020/12/03 05:39:50;;;;;;;163.43;68.57;;;-0.60;80.80;;;;;;4997139;28;91718;-74
2020/12/03 05:42:23;;;;;;;158.13;73.67;;;-0.50;80.40;;;;;;4987043;28;87892;-74
2020/12/03 05:44:53;;;;;;;167.70;71.67;;;-0.50;81.00;;;;;;4984404;28;86965;-74
2020/12/03 05:47:23;;;;;;;159.70;70.67;;;-0.40;80.70;;;;;;4997921;28;86202;-74
2020/12/03 05:49:53;;;;;;;149.63;70.87;;;-0.40;80.40;;;;;;4980563;28;90988;-74
2020/12/03 05:52:22;;;;;;;156.90;70.57;;;-0.50;80.60;;;;;;5010536;28;91430;-74
2020/12/03 05:55:09;;;;;;;156.07;71.23;;;-0.60;81.30;;;;;;5004750;28;87894;-74
2020/12/03 05:57:41;;;;;;;164.13;71.53;;;-0.70;81.70;;;;;;4998408;28;87449;-74
2020/12/03 06:00:11;;;;;;;166.88;71.10;;;-0.70;82.20;;;;;;4997490;28;88150;-75
2020/12/03 06:03:16;;;;;;;157.43;69.17;;;-0.70;82.00;;;;;;4997804;28;91569;-74
2020/12/03 06:05:49;;;;;;;168.23;72.13;;;-0.70;82.00;;;;;;4986656;28;87112;-74
2020/12/03 06:08:18;;;;;;;165.03;71.20;;;-0.80;81.70;;;;;;4995762;28;87427;-74
2020/12/03 06:11:04;;;;;;;153.67;69.53;;;-0.80;82.40;;;;;;4997073;28;87866;-74
2020/12/03 06:13:52;;;;;;;161.03;72.10;;;-0.90;83.30;;;;;;4983177;28;88706;-74
2020/12/03 06:16:43;;;;;;;161.37;69.87;;;-0.90;83.60;;;;;;4979076;28;87445;-74
2020/12/03 06:19:40;;;;;;;158.10;69.53;;;-0.80;82.90;;;;;;4988063;28;86918;-74
2020/12/03 06:22:19;;;;;;;157.03;65.87;;;-0.80;82.80;;;;;;4996060;28;88572;-75
2020/12/03 06:25:00;;;;;;;163.87;69.70;;;-0.70;82.60;;;;;;4984507;28;89017;-74
2020/12/03 06:27:51;;;;;;;158.27;70.43;;;-0.70;82.20;;;;;;4994708;28;87038;-74
2020/12/03 06:30:27;;;;;;;171.93;70.57;;;-0.70;82.20;;;;;;4988450;28;87729;-74
2020/12/03 06:33:11;;;;;;;152.33;66.90;;;-0.70;82.40;;;;;;5014193;28;90914;-74
2020/12/03 06:36:05;;;;;;;171.57;73.50;;;-0.70;81.80;;;;;;4997888;28;88648;-74
2020/12/03 06:38:49;;;;;;;163.57;71.10;;;-0.60;81.50;;;;;;4980262;28;87489;-74
2020/12/03 06:41:50;;;;;;;151.67;67.93;;;-0.50;80.90;;;;;;4964295;28;86775;-74
2020/12/03 06:44:41;;;;;;;150.87;68.83;;;-0.60;81.60;;;;;;4999920;28;88843;-74
2020/12/03 06:47:25;;;;;;;164.73;67.90;;;-0.60;82.00;;;;;;4996318;28;91460;-75
2020/12/03 06:50:02;;;;;;;167.63;73.70;;;-0.50;81.50;;;;;;4992888;28;87867;-74
2020/12/03 06:53:02;;;;;;;165.50;73.83;;;-0.40;81.00;;;;;;4981718;28;87788;-74
2020/12/03 06:55:28;;;;;;;164.57;71.10;;;-0.30;80.80;;;;;;4991542;28;90717;-75
2020/12/03 06:58:38;;;;;;;153.90;71.87;;;-0.50;81.30;;;;;;4994870;28;87615;-75
2020/12/03 07:01:26;;;;;;;168.47;71.70;;;-0.50;82.70;;;;;;4945631;28;87504;-75
2020/12/03 07:04:13;;;;;;;161.23;70.67;;;-0.50;83.20;;;;;;4981947;28;88395;-75
2020/12/03 07:06:58;;;;;;;152.77;68.60;;;-0.40;83.40;;;;;;4996996;28;87625;-75
2020/12/03 07:10:03;;;;;;;155.87;70.70;;;-0.50;83.00;;;;;;4984562;28;91701;-75
2020/12/03 07:13:13;;;;;;;154.47;74.20;;;-0.40;83.00;;;;;;4940596;28;87266;-75
2020/12/03 07:15:45;;;;;;;158.40;70.80;;;-0.50;82.70;;;;;;4991240;28;87594;-74
2020/12/03 07:18:40;;;;;;;162.20;71.68;;;-0.50;83.50;;;;;;5001536;28;91327;-75
2020/12/03 07:21:43;;;;;;;159.07;70.90;;;-0.50;84.20;;;;;;4982201;28;88430;-75
2020/12/03 07:24:20;;;;;;;;;;;-0.30;82.80;;;;;;4995754;28;86895;-75
2020/12/03 07:27:07;;;;;;;155.40;69.80;;;-0.40;83.20;;;;;;5006282;28;87442;-74
2020/12/03 07:29:57;;;;;;;157.17;69.80;;;-0.40;83.40;;;;;;4990955;28;91719;-74
2020/12/03 07:32:40;;;;;;;161.00;70.30;;;-0.50;83.90;;;;;;5003820;28;90917;-74
2020/12/03 07:35:25;;;;;;;151.53;71.20;;;-0.40;84.00;;;;;;4998011;28;87452;-75
2020/12/03 07:38:25;;;;;;;161.07;73.93;;;-0.50;84.40;;;;;;5005815;28;87881;-75
2020/12/03 07:40:55;;;;;;;156.67;73.47;;;-0.40;84.40;;;;;;5008885;28;89033;-75
2020/12/03 07:43:49;;;;;;;163.07;71.50;;;-0.30;83.70;;;;;;5005493;28;88257;-74
2020/12/03 07:46:41;;;;;;;165.17;75.10;;;-0.30;83.60;;;;;;5000397;28;90326;-74
2020/12/03 07:49:09;;;;;;;170.15;74.72;;;-0.50;84.00;;;;;;5003396;28;87218;-75
2020/12/03 07:51:35;;;;;;;163.57;78.07;;;-0.50;85.00;;;;;;5008460;28;87449;-74
2020/12/03 07:54:17;;;;;;;162.70;70.33;;;-0.60;86.20;;;;;;5008044;28;91116;-74
2020/12/03 07:56:45;;;;;;;164.90;71.93;;;-0.50;86.10;;;;;;5006148;28;86972;-74
2020/12/03 07:59:23;;;;;;;153.27;72.47;;;-0.40;85.20;;;;;;5005766;28;87764;-75
2020/12/03 08:01:50;;;;;;;157.47;73.87;;;-0.30;85.00;;;;;;4998525;28;90018;-74
2020/12/03 08:04:20;;;;;;;152.20;71.60;;;-0.20;84.60;;;;;;5004987;28;91135;-75
2020/12/03 08:07:06;;;;;;;165.97;75.17;;;-0.20;84.60;;;;;;4995282;28;87130;-74
2020/12/03 08:09:50;;;;;;;156.77;74.50;;;-0.20;84.40;;;;;;5013635;28;87838;-73
2020/12/03 08:12:24;;;;;;;157.37;73.47;;;-0.10;85.40;;;;;;4994382;28;92943;-74
2020/12/03 08:14:52;;;;;;;168.13;74.60;;;-0.10;85.40;;;;;;4997891;28;92140;-74
2020/12/03 08:17:18;;;;;;;175.77;77.27;;;-0.10;86.00;;;;;;4999835;28;87254;-76
2020/12/03 08:19:47;;;;;;;175.43;79.03;;;-0.10;85.40;;;;;;4998793;28;87271;-75
2020/12/03 08:22:31;;;;;;;186.10;85.30;;;-0.20;86.10;;;;;;4988360;28;90833;-74
2020/12/03 08:25:09;;;;;;;166.07;76.63;;;-0.10;86.50;;;;;;5004192;28;91560;-76
2020/12/03 08:27:35;;;;;;;176.03;81.63;;;0.00;86.10;;;;;;4988483;28;87242;-76
2020/12/03 08:30:01;;;;;;;163.77;75.27;;;0.10;85.70;;;;;;5006500;28;86857;-75
2020/12/03 08:32:46;;;;;;;180.43;79.57;;;0.10;85.00;;;;;;4998118;28;88505;-75
2020/12/03 08:35:12;;;;;;;170.50;75.50;;;0.10;85.80;;;;;;4990225;28;90639;-76
2020/12/03 08:37:38;;;;;;;152.03;72.47;;;0.00;85.50;;;;;;5006910;28;88457;-76
2020/12/03 08:40:04;;;;;;;156.33;71.47;;;-0.20;86.10;;;;;;4999900;28;87660;-76
2020/12/03 08:42:30;;;;;;;152.17;70.60;;;-0.20;87.30;;;;;;4984148;28;91592;-76
2020/12/03 08:44:56;;;;;;;170.60;75.50;;;-0.30;88.40;;;;;;5000717;28;91256;-75
2020/12/03 08:47:45;;;;;;;157.23;73.87;;;-0.20;87.90;;;;;;5000574;28;87358;-76
2020/12/03 08:50:15;;;;;;;154.83;73.33;;;-0.10;87.70;;;;;;5002259;28;87533;-76
2020/12/03 08:52:41;;;;;;;158.60;73.67;;;0.00;86.90;;;;;;5009044;28;90080;-76
2020/12/03 08:55:09;;;;;;;160.07;75.50;;;0.00;86.60;;;;;;5022293;28;91630;-76
2020/12/03 08:57:40;;;;;;;151.70;71.93;;;0.00;86.50;;;;;;5005224;28;87027;-76
2020/12/03 09:00:13;;;;;;;157.93;74.45;;;0.00;86.80;;;;;;4997871;28;88061;-76
2020/12/03 09:02:41;;;;;;;152.50;74.10;;;-0.10;87.00;;;;;;4987926;28;92445;-76
2020/12/03 09:05:09;;;;;;;157.37;75.13;;;0.00;87.00;;;;;;5011678;28;91829;-76
2020/12/03 09:07:42;;;;;;;157.93;71.53;;;0.00;87.30;;;;;;4999957;28;86938;-75
2020/12/03 09:10:11;;;;;;;154.33;72.20;;;0.10;86.50;;;;;;4997441;28;87268;-75
2020/12/03 09:12:39;;;;;;;162.07;73.70;;;0.10;86.90;;;;;;5014399;28;91273;-75
2020/12/03 09:15:08;;;;;;;149.23;71.23;;;0.20;86.10;;;;;;4996807;28;90443;-76
2020/12/03 09:17:38;;;;;;;165.73;75.70;;;0.10;86.40;;;;;;4990211;28;87088;-75
2020/12/03 09:20:07;;;;;;;156.90;74.83;;;0.20;86.10;;;;;;4997618;28;88011;-76
2020/12/03 09:22:35;;;;;;;162.30;75.10;;;0.20;86.20;;;;;;5014367;28;91145;-76
2020/12/03 09:25:07;;;;;;;158.60;74.60;;;0.10;86.80;;;;;;4998531;28;87914;-75
2020/12/03 09:27:43;;;;;;;175.27;75.80;;;0.00;87.40;;;;;;5013730;28;88334;-76
2020/12/03 09:30:17;;;;;;;154.33;72.53;;;0.00;88.00;;;;;;4998712;28;87891;-76
2020/12/03 09:32:48;;;;;;;146.73;68.33;;;0.00;87.60;;;;;;4994384;28;90210;-76
2020/12/03 09:35:15;;;;;;;153.60;71.93;;;-0.10;88.50;;;;;;4998491;28;88042;-76
2020/12/03 09:37:41;;;;;;;143.10;70.43;;;0.00;88.50;;;;;;4999171;28;87276;-76
2020/12/03 09:40:08;;;;;;;156.27;73.40;;;0.00;88.30;;;;;;4995202;28;87661;-76
2020/12/03 09:42:43;;;;;;;144.80;71.90;;;0.10;88.10;;;;;;4996105;28;88159;-75
2020/12/03 09:45:13;;;;;;;157.67;73.73;;;0.20;87.80;;;;;;5010126;28;87956;-75
2020/12/03 09:47:41;;;;;;;157.30;77.43;;;0.30;86.70;;;;;;4985451;28;87209;-75
2020/12/03 09:50:08;;;;;;;153.27;76.57;;;0.30;86.60;;;;;;4982595;28;88051;-76
2020/12/03 09:52:43;;;;;;;165.70;79.70;;;0.30;86.90;;;;;;4993619;28;88919;-75
2020/12/03 09:55:12;;;;;;;153.37;74.37;;;0.50;86.50;;;;;;5000468;28;92080;-75
2020/12/03 09:57:38;;;;;;;165.83;78.67;;;0.50;86.50;;;;;;5007894;28;87679;-75
2020/12/03 10:00:08;;;;;;;148.23;74.63;;;0.50;86.00;;;;;;4989943;28;87777;-76
2020/12/03 10:02:52;;;;;;;159.00;76.13;;;0.40;86.60;;;;;;4997897;28;88095;-76
2020/12/03 10:05:48;;;;;;;161.90;76.10;;;0.40;87.80;;;;;;4987083;28;88713;-75
2020/12/03 10:08:37;;;;;;;161.40;78.50;;;0.50;86.40;;;;;;4984393;28;87167;-76
2020/12/03 10:11:28;;;;;;;141.20;73.40;;;0.50;86.20;;;;;;4984565;28;86174;-76
2020/12/03 10:13:54;;;;;;;144.90;71.87;;;0.40;86.50;;;;;;4989315;28;88256;-75
2020/12/03 10:16:22;;;;;;;148.60;72.47;;;0.50;86.30;;;;;;4985445;28;91739;-75
2020/12/03 10:18:53;;;;;;;140.53;70.83;;;0.50;86.50;;;;;;4988989;28;88001;-75
2020/12/03 10:21:24;;;;;;;149.53;75.17;;;0.50;86.50;;;;;;4987742;28;88513;-75
2020/12/03 10:24:06;;;;;;;140.00;65.85;;;0.50;86.90;;;;;;4987825;28;88243;-75
2020/12/03 10:26:37;;;;;;;152.07;71.65;;;0.50;87.10;;;;;;4993902;28;88750;-75
2020/12/03 10:29:15;;;;;;;145.80;68.43;;;0.60;87.10;;;;;;4997086;28;88846;-76
2020/12/03 10:31:43;;;;;;;142.87;69.30;;;0.60;86.90;;;;;;4980846;28;87353;-75
2020/12/03 10:34:13;;;;;;;143.20;71.87;;;0.70;86.70;;;;;;5000873;28;91342;-75
2020/12/03 10:36:56;;;;;;;151.23;71.83;;;0.70;86.70;;;;;;5000794;28;89395;-75
2020/12/03 10:39:32;;;;;;;134.13;68.60;;;0.70;85.90;;;;;;5020112;28;87378;-76
2020/12/03 10:42:00;;;;;;;142.83;71.23;;;0.50;87.60;;;;;;5011589;28;88308;-75
2020/12/03 10:44:28;;;;;;;142.87;72.80;;;0.60;88.30;;;;;;4996780;28;89151;-75
2020/12/03 10:47:04;;;;;;;154.80;75.07;;;0.70;87.70;;;;;;4997638;28;89120;-75
2020/12/03 10:49:35;;;;;;;135.93;70.07;;;0.80;86.60;;;;;;4993081;28;87388;-75
2020/12/03 10:52:04;;;;;;;140.20;71.60;;;0.80;85.60;;;;;;4994731;28;87325;-77
2020/12/03 10:54:34;;;;;;;135.77;66.93;;;0.80;85.00;;;;;;5012865;28;88828;-75
2020/12/03 10:57:08;;;;;;;150.87;69.87;;;0.70;85.00;;;;;;4997234;28;88344;-76
2020/12/03 10:59:38;;;;;;;136.67;70.00;;;0.80;84.40;;;;;;4997201;28;87056;-76
2020/12/03 11:02:14;;;;;;;140.13;71.70;;;0.60;84.60;;;;;;4998017;28;88564;-76
2020/12/03 11:04:42;;;;;;;140.37;71.10;;;0.60;85.80;;;;;;5014038;28;91469;-73
2020/12/03 11:07:11;;;;;;;139.53;71.07;;;0.70;85.70;;;;;;4997291;28;88226;-77
2020/12/03 11:09:39;;;;;;;142.07;73.00;;;0.70;85.90;;;;;;4999494;28;87893;-77
2020/12/03 11:12:11;;;;;;;140.63;72.67;;;0.80;85.60;;;;;;4981851;28;88307;-75
2020/12/03 11:14:37;;;;;;;;;;;0.80;85.00;;;;;;4998868;28;90305;-78
2020/12/03 11:17:38;;;;;;;136.27;68.43;;;1.00;85.10;;;;;;5007168;28;90238;-79
2020/12/03 11:20:05;;;;;;;136.73;72.30;;;1.00;83.90;;;;;;4976558;28;86985;-76
2020/12/03 11:22:38;;;;;;;140.10;69.93;;;1.10;83.40;;;;;;4983000;28;87151;-79
2020/12/03 11:25:06;;;;;;;149.70;70.83;;;1.10;83.90;;;;;;4964201;28;90897;-76
2020/12/03 11:27:35;;;;;;;140.03;72.53;;;1.20;83.10;;;;;;4982245;28;86451;-76
2020/12/03 11:30:19;;;;;;;140.83;74.50;;;1.10;83.30;;;;;;4986998;28;90440;-76
2020/12/03 11:32:46;;;;;;;127.23;70.13;;;1.20;83.10;;;;;;4988646;28;87208;-76
2020/12/03 11:35:33;;;;;;;116.53;62.47;;;1.20;82.40;;;;;;4998762;28;92579;-76
2020/12/03 11:38:03;;;;;;;130.37;72.20;;;1.30;82.80;;;;;;5000140;28;92127;-76
2020/12/03 11:50:54;;;;;;;135.27;73.70;;;1.20;82.60;;;;;;5001477;28;87389;-77
2020/12/03 11:53:24;;;;;;;131.10;69.80;;;1.20;83.70;;;;;;4984032;28;88350;-77
2020/12/03 11:55:50;;;;;;;126.93;69.30;;;1.30;83.10;;;;;;4993474;28;92065;-77
2020/12/03 11:58:16;;;;;;;121.47;65.27;;;1.40;82.60;;;;;;4980364;28;87532;-76
2020/12/03 12:00:44;;;;;;;134.67;69.77;;;1.40;81.40;;;;;;4980635;28;88447;-76
2020/12/03 12:03:14;;;;;;;127.77;69.77;;;1.40;82.00;;;;;;4981971;28;87029;-76
2020/12/03 12:10:45;;;;;;;127.90;69.83;;;1.60;81.00;;;;;;4983159;28;87261;-77
2020/12/03 12:13:14;;;;;;;124.57;67.87;;;1.50;81.20;;;;;;4981390;28;87030;-76
2020/12/03 12:15:40;;;;;;;140.70;73.40;;;1.50;81.60;;;;;;4980664;28;91723;-77
2020/12/03 12:18:07;;;;;;;125.00;70.30;;;1.50;81.70;;;;;;4980462;28;91590;-76
2020/12/03 12:20:33;;;;;;;129.43;70.20;;;1.50;82.00;;;;;;4981107;28;87063;-76
2020/12/03 12:22:59;;;;;;;137.57;74.67;;;1.70;81.30;;;;;;4981575;28;87036;-77
2020/12/03 12:25:24;;;;;;;134.03;68.07;;;1.70;80.90;;;;;;4980560;28;92267;-77
2020/12/03 12:27:50;;;;;;;133.30;70.97;;;1.80;80.10;;;;;;4982389;28;89081;-76
2020/12/03 12:30:16;;;;;;;123.33;68.03;;;1.80;80.00;;;;;;4992112;28;87024;-77
2020/12/03 12:32:42;;;;;;;137.10;71.60;;;1.80;79.50;;;;;;4985553;28;88294;-77
2020/12/03 12:35:08;;;;;;;125.83;69.70;;;1.90;80.00;;;;;;5002515;28;91110;-76
2020/12/03 12:37:34;;;;;;;133.23;72.00;;;2.10;79.70;;;;;;5002251;28;90546;-77
2020/12/03 12:40:00;;;;;;;125.03;67.80;;;2.00;79.20;;;;;;5003218;28;87389;-76
2020/12/03 12:42:27;;;;;;;135.70;72.63;;;1.90;78.90;;;;;;5002278;28;88077;-76
2020/12/03 12:44:54;;;;;;;139.57;72.27;;;1.80;79.60;;;;;;5001670;28;91097;-76
2020/12/03 12:47:20;;;;;;;136.00;72.07;;;1.80;80.50;;;;;;4993960;28;89505;-76
2020/12/03 12:49:46;;;;;;;134.07;73.93;;;1.70;80.90;;;;;;4981030;28;87868;-77
2020/12/03 12:52:12;;;;;;;140.00;72.30;;;1.40;81.80;;;;;;4981942;28;87065;-76
2020/12/03 12:54:38;;;;;;;141.33;76.17;;;1.40;83.30;;;;;;4981559;28;91749;-77
2020/12/03 12:57:04;;;;;;;136.97;71.47;;;1.40;83.60;;;;;;4981352;28;90784;-76
2020/12/03 12:59:30;;;;;;;132.03;69.70;;;1.50;82.70;;;;;;4982413;28;87436;-76
2020/12/03 13:01:56;;;;;;;142.13;75.27;;;1.70;82.00;;;;;;4981541;28;87089;-76